sensor_id;sensor_type;location;lat;lon;timestamp;P1;durP1;ratioP1;P2;durP2;ratioP2
19919;SDS011;10122;50.074;19.920;2023-01-10T00:00:21;27.50;;;15.23;;
19919;SDS011;10122;50.074;19.920;2023-01-10T00:02:48;28.15;;;15.50;;
19919;SDS011;10122;50.074;19.920;2023-01-10T00:05:14;26.80;;;13.93;;
19919;SDS011;10122;50.074;19.920;2023-01-10T00:07:40;30.05;;;15.70;;
19919;SDS011;10122;50.074;19.920;2023-01-10T00:10:06;27.70;;;14.65;;
19919;SDS011;10122;50.074;19.920;2023-01-10T00:12:32;29.05;;;15.13;;
19919;SDS011;10122;50.074;19.920;2023-01-10T00:15:17;28.63;;;15.07;;
19919;SDS011;10122;50.074;19.920;2023-01-10T00:17:42;27.17;;;14.57;;
19919;SDS011;10122;50.074;19.920;2023-01-10T00:20:08;28.80;;;14.80;;
19919;SDS011;10122;50.074;19.920;2023-01-10T00:22:35;29.23;;;14.68;;
19919;SDS011;10122;50.074;19.920;2023-01-10T00:25:00;29.08;;;14.50;;
19919;SDS011;10122;50.074;19.920;2023-01-10T00:27:26;27.00;;;14.43;;
19919;SDS011;10122;50.074;19.920;2023-01-10T00:29:52;27.98;;;14.32;;
19919;SDS011;10122;50.074;19.920;2023-01-10T00:32:19;25.40;;;14.18;;
19919;SDS011;10122;50.074;19.920;2023-01-10T00:34:45;27.45;;;14.63;;
19919;SDS011;10122;50.074;19.920;2023-01-10T00:37:11;23.83;;;13.73;;
19919;SDS011;10122;50.074;19.920;2023-01-10T00:39:38;24.23;;;14.05;;
19919;SDS011;10122;50.074;19.920;2023-01-10T00:42:03;27.10;;;13.93;;
19919;SDS011;10122;50.074;19.920;2023-01-10T00:44:48;26.13;;;13.93;;
19919;SDS011;10122;50.074;19.920;2023-01-10T00:47:13;27.88;;;14.20;;
19919;SDS011;10122;50.074;19.920;2023-01-10T00:49:39;29.58;;;15.68;;
19919;SDS011;10122;50.074;19.920;2023-01-10T00:52:05;32.83;;;16.13;;
19919;SDS011;10122;50.074;19.920;2023-01-10T00:54:31;33.13;;;18.60;;
19919;SDS011;10122;50.074;19.920;2023-01-10T00:56:57;38.60;;;20.77;;
19919;SDS011;10122;50.074;19.920;2023-01-10T00:59:23;36.10;;;19.02;;
19919;SDS011;10122;50.074;19.920;2023-01-10T01:01:49;35.40;;;18.63;;
19919;SDS011;10122;50.074;19.920;2023-01-10T01:04:15;34.67;;;18.08;;
19919;SDS011;10122;50.074;19.920;2023-01-10T01:06:44;35.63;;;18.02;;
19919;SDS011;10122;50.074;19.920;2023-01-10T01:09:11;31.85;;;16.75;;
19919;SDS011;10122;50.074;19.920;2023-01-10T01:11:37;33.88;;;18.25;;
19919;SDS011;10122;50.074;19.920;2023-01-10T01:14:03;34.55;;;18.55;;
19919;SDS011;10122;50.074;19.920;2023-01-10T01:16:29;32.72;;;17.85;;
19919;SDS011;10122;50.074;19.920;2023-01-10T01:18:55;32.50;;;17.90;;
19919;SDS011;10122;50.074;19.920;2023-01-10T01:21:22;34.42;;;17.60;;
19919;SDS011;10122;50.074;19.920;2023-01-10T01:23:52;35.45;;;17.92;;
19919;SDS011;10122;50.074;19.920;2023-01-10T01:26:21;33.85;;;17.23;;
19919;SDS011;10122;50.074;19.920;2023-01-10T01:28:47;32.15;;;17.35;;
19919;SDS011;10122;50.074;19.920;2023-01-10T01:31:13;34.17;;;17.23;;
19919;SDS011;10122;50.074;19.920;2023-01-10T01:33:39;35.47;;;17.80;;
19919;SDS011;10122;50.074;19.920;2023-01-10T01:36:08;31.77;;;17.08;;
19919;SDS011;10122;50.074;19.920;2023-01-10T01:38:36;32.50;;;16.80;;
19919;SDS011;10122;50.074;19.920;2023-01-10T01:41:02;29.52;;;15.98;;
19919;SDS011;10122;50.074;19.920;2023-01-10T01:43:29;30.73;;;16.73;;
19919;SDS011;10122;50.074;19.920;2023-01-10T01:45:59;30.02;;;16.58;;
19919;SDS011;10122;50.074;19.920;2023-01-10T01:48:35;30.23;;;16.25;;
19919;SDS011;10122;50.074;19.920;2023-01-10T01:51:14;31.95;;;15.95;;
19919;SDS011;10122;50.074;19.920;2023-01-10T01:53:54;29.95;;;15.38;;
19919;SDS011;10122;50.074;19.920;2023-01-10T01:56:29;27.30;;;14.30;;
19919;SDS011;10122;50.074;19.920;2023-01-10T01:59:07;26.55;;;14.18;;
19919;SDS011;10122;50.074;19.920;2023-01-10T02:01:45;27.08;;;14.10;;
19919;SDS011;10122;50.074;19.920;2023-01-10T02:04:15;26.48;;;14.18;;
19919;SDS011;10122;50.074;19.920;2023-01-10T02:06:46;25.42;;;12.90;;
19919;SDS011;10122;50.074;19.920;2023-01-10T02:09:24;23.95;;;13.13;;
19919;SDS011;10122;50.074;19.920;2023-01-10T02:11:56;24.58;;;12.57;;
19919;SDS011;10122;50.074;19.920;2023-01-10T02:14:22;25.05;;;12.77;;
19919;SDS011;10122;50.074;19.920;2023-01-10T02:16:49;24.60;;;13.05;;
19919;SDS011;10122;50.074;19.920;2023-01-10T02:30:18;23.67;;;12.30;;
19919;SDS011;10122;50.074;19.920;2023-01-10T02:35:55;23.73;;;12.20;;
19919;SDS011;10122;50.074;19.920;2023-01-10T02:38:37;22.67;;;12.32;;
19919;SDS011;10122;50.074;19.920;2023-01-10T02:43:49;22.38;;;12.48;;
19919;SDS011;10122;50.074;19.920;2023-01-10T02:46:27;22.73;;;11.85;;
19919;SDS011;10122;50.074;19.920;2023-01-10T02:48:55;22.50;;;12.00;;
19919;SDS011;10122;50.074;19.920;2023-01-10T02:51:22;20.00;;;11.23;;
19919;SDS011;10122;50.074;19.920;2023-01-10T02:56:40;20.35;;;11.73;;
19919;SDS011;10122;50.074;19.920;2023-01-10T03:02:21;21.38;;;11.25;;
19919;SDS011;10122;50.074;19.920;2023-01-10T03:08:00;20.88;;;10.60;;
19919;SDS011;10122;50.074;19.920;2023-01-10T03:13:13;20.58;;;10.82;;
19919;SDS011;10122;50.074;19.920;2023-01-10T03:15:45;18.17;;;10.13;;
19919;SDS011;10122;50.074;19.920;2023-01-10T03:18:18;22.13;;;10.77;;
19919;SDS011;10122;50.074;19.920;2023-01-10T03:20:52;20.45;;;10.65;;
19919;SDS011;10122;50.074;19.920;2023-01-10T03:23:20;19.23;;;10.52;;
19919;SDS011;10122;50.074;19.920;2023-01-10T03:25:48;18.85;;;10.73;;
19919;SDS011;10122;50.074;19.920;2023-01-10T03:28:20;18.95;;;10.75;;
19919;SDS011;10122;50.074;19.920;2023-01-10T03:33:25;18.48;;;10.20;;
19919;SDS011;10122;50.074;19.920;2023-01-10T03:36:36;19.30;;;10.80;;
19919;SDS011;10122;50.074;19.920;2023-01-10T03:49:43;18.23;;;9.57;;
19919;SDS011;10122;50.074;19.920;2023-01-10T03:52:13;16.83;;;9.18;;
19919;SDS011;10122;50.074;19.920;2023-01-10T03:54:41;16.75;;;8.73;;
19919;SDS011;10122;50.074;19.920;2023-01-10T03:57:13;15.88;;;8.55;;
19919;SDS011;10122;50.074;19.920;2023-01-10T03:59:40;15.73;;;7.85;;
19919;SDS011;10122;50.074;19.920;2023-01-10T04:02:06;16.00;;;8.32;;
19919;SDS011;10122;50.074;19.920;2023-01-10T04:04:32;17.85;;;7.60;;
19919;SDS011;10122;50.074;19.920;2023-01-10T04:06:57;13.30;;;7.50;;
19919;SDS011;10122;50.074;19.920;2023-01-10T04:09:23;14.30;;;7.22;;
19919;SDS011;10122;50.074;19.920;2023-01-10T04:11:49;11.00;;;6.18;;
19919;SDS011;10122;50.074;19.920;2023-01-10T04:14:14;11.38;;;6.50;;
19919;SDS011;10122;50.074;19.920;2023-01-10T04:16:40;11.05;;;6.22;;
19919;SDS011;10122;50.074;19.920;2023-01-10T04:19:06;11.57;;;6.00;;
19919;SDS011;10122;50.074;19.920;2023-01-10T04:21:32;9.77;;;5.68;;
19919;SDS011;10122;50.074;19.920;2023-01-10T04:23:57;10.80;;;5.43;;
19919;SDS011;10122;50.074;19.920;2023-01-10T04:26:23;13.40;;;5.25;;
19919;SDS011;10122;50.074;19.920;2023-01-10T04:28:49;10.80;;;5.30;;
19919;SDS011;10122;50.074;19.920;2023-01-10T04:31:15;11.75;;;5.20;;
19919;SDS011;10122;50.074;19.920;2023-01-10T04:33:40;10.55;;;5.10;;
19919;SDS011;10122;50.074;19.920;2023-01-10T04:36:06;10.13;;;4.82;;
19919;SDS011;10122;50.074;19.920;2023-01-10T04:38:32;9.23;;;4.70;;
19919;SDS011;10122;50.074;19.920;2023-01-10T04:40:58;8.20;;;4.43;;
19919;SDS011;10122;50.074;19.920;2023-01-10T04:43:24;10.05;;;4.50;;
19919;SDS011;10122;50.074;19.920;2023-01-10T04:45:50;9.05;;;4.63;;
19919;SDS011;10122;50.074;19.920;2023-01-10T04:48:16;9.68;;;4.80;;
19919;SDS011;10122;50.074;19.920;2023-01-10T04:50:42;7.65;;;4.07;;
19919;SDS011;10122;50.074;19.920;2023-01-10T04:53:12;9.90;;;4.63;;
19919;SDS011;10122;50.074;19.920;2023-01-10T04:55:38;10.00;;;3.92;;
19919;SDS011;10122;50.074;19.920;2023-01-10T04:58:03;6.35;;;4.13;;
19919;SDS011;10122;50.074;19.920;2023-01-10T05:00:29;7.75;;;4.60;;
19919;SDS011;10122;50.074;19.920;2023-01-10T05:02:55;6.85;;;4.00;;
19919;SDS011;10122;50.074;19.920;2023-01-10T05:05:22;8.43;;;4.07;;
19919;SDS011;10122;50.074;19.920;2023-01-10T05:07:48;7.57;;;4.20;;
19919;SDS011;10122;50.074;19.920;2023-01-10T05:10:13;8.15;;;4.07;;
19919;SDS011;10122;50.074;19.920;2023-01-10T05:12:39;6.20;;;4.00;;
19919;SDS011;10122;50.074;19.920;2023-01-10T05:15:05;7.97;;;4.10;;
19919;SDS011;10122;50.074;19.920;2023-01-10T05:17:31;6.13;;;3.67;;
19919;SDS011;10122;50.074;19.920;2023-01-10T05:19:57;8.38;;;3.97;;
19919;SDS011;10122;50.074;19.920;2023-01-10T05:22:23;6.80;;;3.75;;
19919;SDS011;10122;50.074;19.920;2023-01-10T05:24:48;7.03;;;3.65;;
19919;SDS011;10122;50.074;19.920;2023-01-10T05:27:14;7.60;;;3.58;;
19919;SDS011;10122;50.074;19.920;2023-01-10T05:29:40;9.73;;;3.70;;
19919;SDS011;10122;50.074;19.920;2023-01-10T05:32:06;7.25;;;3.80;;
19919;SDS011;10122;50.074;19.920;2023-01-10T05:34:32;6.88;;;3.63;;
19919;SDS011;10122;50.074;19.920;2023-01-10T05:36:57;6.10;;;3.90;;
19919;SDS011;10122;50.074;19.920;2023-01-10T05:39:23;7.47;;;3.63;;
19919;SDS011;10122;50.074;19.920;2023-01-10T05:41:49;7.13;;;3.88;;
19919;SDS011;10122;50.074;19.920;2023-01-10T05:44:14;6.43;;;3.40;;
19919;SDS011;10122;50.074;19.920;2023-01-10T05:46:40;7.88;;;3.53;;
19919;SDS011;10122;50.074;19.920;2023-01-10T05:49:06;7.75;;;3.60;;
19919;SDS011;10122;50.074;19.920;2023-01-10T05:51:31;6.18;;;3.85;;
19919;SDS011;10122;50.074;19.920;2023-01-10T05:53:57;6.32;;;3.55;;
19919;SDS011;10122;50.074;19.920;2023-01-10T05:56:23;4.95;;;3.30;;
19919;SDS011;10122;50.074;19.920;2023-01-10T05:58:49;6.82;;;3.72;;
19919;SDS011;10122;50.074;19.920;2023-01-10T06:01:15;6.15;;;3.45;;
19919;SDS011;10122;50.074;19.920;2023-01-10T06:03:41;5.68;;;3.35;;
19919;SDS011;10122;50.074;19.920;2023-01-10T06:06:07;6.60;;;3.40;;
19919;SDS011;10122;50.074;19.920;2023-01-10T06:08:33;5.00;;;2.85;;
19919;SDS011;10122;50.074;19.920;2023-01-10T06:11:01;6.40;;;3.70;;
19919;SDS011;10122;50.074;19.920;2023-01-10T06:13:30;4.95;;;3.10;;
19919;SDS011;10122;50.074;19.920;2023-01-10T06:15:56;5.88;;;3.10;;
19919;SDS011;10122;50.074;19.920;2023-01-10T06:18:22;6.50;;;3.40;;
19919;SDS011;10122;50.074;19.920;2023-01-10T06:20:47;5.88;;;3.53;;
19919;SDS011;10122;50.074;19.920;2023-01-10T06:23:13;5.45;;;3.28;;
19919;SDS011;10122;50.074;19.920;2023-01-10T06:25:39;6.82;;;3.55;;
19919;SDS011;10122;50.074;19.920;2023-01-10T06:28:09;6.30;;;3.45;;
19919;SDS011;10122;50.074;19.920;2023-01-10T06:30:36;5.53;;;3.10;;
19919;SDS011;10122;50.074;19.920;2023-01-10T06:33:02;5.78;;;2.97;;
19919;SDS011;10122;50.074;19.920;2023-01-10T06:35:29;5.93;;;3.20;;
19919;SDS011;10122;50.074;19.920;2023-01-10T06:37:55;5.78;;;2.90;;
19919;SDS011;10122;50.074;19.920;2023-01-10T06:40:21;4.32;;;2.88;;
19919;SDS011;10122;50.074;19.920;2023-01-10T06:42:47;6.93;;;2.92;;
19919;SDS011;10122;50.074;19.920;2023-01-10T06:45:14;5.05;;;2.85;;
19919;SDS011;10122;50.074;19.920;2023-01-10T06:47:40;5.47;;;3.03;;
19919;SDS011;10122;50.074;19.920;2023-01-10T06:50:06;5.93;;;2.75;;
19919;SDS011;10122;50.074;19.920;2023-01-10T06:52:32;4.70;;;2.53;;
19919;SDS011;10122;50.074;19.920;2023-01-10T06:54:58;4.60;;;2.47;;
19919;SDS011;10122;50.074;19.920;2023-01-10T06:57:24;4.97;;;2.50;;
19919;SDS011;10122;50.074;19.920;2023-01-10T06:59:52;5.85;;;2.80;;
19919;SDS011;10122;50.074;19.920;2023-01-10T07:02:18;5.35;;;2.67;;
19919;SDS011;10122;50.074;19.920;2023-01-10T07:04:44;4.25;;;2.53;;
19919;SDS011;10122;50.074;19.920;2023-01-10T07:07:09;5.40;;;2.67;;
19919;SDS011;10122;50.074;19.920;2023-01-10T07:09:35;5.35;;;2.45;;
19919;SDS011;10122;50.074;19.920;2023-01-10T07:12:01;4.22;;;2.25;;
19919;SDS011;10122;50.074;19.920;2023-01-10T07:14:27;4.53;;;2.58;;
19919;SDS011;10122;50.074;19.920;2023-01-10T07:16:52;4.25;;;2.40;;
19919;SDS011;10122;50.074;19.920;2023-01-10T07:19:18;5.40;;;2.58;;
19919;SDS011;10122;50.074;19.920;2023-01-10T07:21:44;3.80;;;2.10;;
19919;SDS011;10122;50.074;19.920;2023-01-10T07:24:10;5.05;;;2.63;;
19919;SDS011;10122;50.074;19.920;2023-01-10T07:26:36;4.43;;;2.38;;
19919;SDS011;10122;50.074;19.920;2023-01-10T07:29:02;3.50;;;2.30;;
19919;SDS011;10122;50.074;19.920;2023-01-10T07:31:28;4.93;;;2.50;;
19919;SDS011;10122;50.074;19.920;2023-01-10T07:33:53;4.65;;;2.35;;
19919;SDS011;10122;50.074;19.920;2023-01-10T07:36:19;5.32;;;2.70;;
19919;SDS011;10122;50.074;19.920;2023-01-10T07:38:45;4.82;;;2.40;;
19919;SDS011;10122;50.074;19.920;2023-01-10T07:41:11;4.30;;;2.35;;
19919;SDS011;10122;50.074;19.920;2023-01-10T07:43:37;4.22;;;2.67;;
19919;SDS011;10122;50.074;19.920;2023-01-10T07:46:03;4.47;;;2.60;;
19919;SDS011;10122;50.074;19.920;2023-01-10T07:48:33;5.30;;;2.67;;
19919;SDS011;10122;50.074;19.920;2023-01-10T07:51:00;5.22;;;2.65;;
19919;SDS011;10122;50.074;19.920;2023-01-10T07:53:27;4.93;;;2.50;;
19919;SDS011;10122;50.074;19.920;2023-01-10T07:55:53;5.00;;;2.42;;
19919;SDS011;10122;50.074;19.920;2023-01-10T07:58:22;5.38;;;2.80;;
19919;SDS011;10122;50.074;19.920;2023-01-10T08:00:48;4.40;;;2.53;;
19919;SDS011;10122;50.074;19.920;2023-01-10T08:03:14;5.13;;;2.80;;
19919;SDS011;10122;50.074;19.920;2023-01-10T08:05:40;8.27;;;2.90;;
19919;SDS011;10122;50.074;19.920;2023-01-10T08:08:07;5.93;;;2.88;;
19919;SDS011;10122;50.074;19.920;2023-01-10T08:10:34;6.20;;;3.05;;
19919;SDS011;10122;50.074;19.920;2023-01-10T08:13:01;6.30;;;3.25;;
19919;SDS011;10122;50.074;19.920;2023-01-10T08:15:27;7.22;;;3.50;;
19919;SDS011;10122;50.074;19.920;2023-01-10T08:17:53;5.38;;;3.25;;
19919;SDS011;10122;50.074;19.920;2023-01-10T08:20:19;5.80;;;2.90;;
19919;SDS011;10122;50.074;19.920;2023-01-10T08:22:44;5.32;;;3.15;;
19919;SDS011;10122;50.074;19.920;2023-01-10T08:25:10;6.03;;;3.25;;
19919;SDS011;10122;50.074;19.920;2023-01-10T08:27:36;6.43;;;3.33;;
19919;SDS011;10122;50.074;19.920;2023-01-10T08:30:03;6.25;;;3.50;;
19919;SDS011;10122;50.074;19.920;2023-01-10T08:32:29;5.28;;;3.03;;
19919;SDS011;10122;50.074;19.920;2023-01-10T08:34:55;6.35;;;3.35;;
19919;SDS011;10122;50.074;19.920;2023-01-10T08:37:21;5.38;;;3.28;;
19919;SDS011;10122;50.074;19.920;2023-01-10T08:39:47;5.50;;;3.20;;
19919;SDS011;10122;50.074;19.920;2023-01-10T08:42:13;5.40;;;3.45;;
19919;SDS011;10122;50.074;19.920;2023-01-10T08:44:49;7.05;;;3.42;;
19919;SDS011;10122;50.074;19.920;2023-01-10T08:47:15;7.85;;;4.25;;
19919;SDS011;10122;50.074;19.920;2023-01-10T08:49:40;8.57;;;3.85;;
19919;SDS011;10122;50.074;19.920;2023-01-10T08:52:06;8.45;;;3.83;;
19919;SDS011;10122;50.074;19.920;2023-01-10T08:54:32;7.30;;;3.95;;
19919;SDS011;10122;50.074;19.920;2023-01-10T08:56:58;8.50;;;3.83;;
19919;SDS011;10122;50.074;19.920;2023-01-10T08:59:23;6.10;;;3.75;;
19919;SDS011;10122;50.074;19.920;2023-01-10T09:01:49;7.40;;;3.75;;
19919;SDS011;10122;50.074;19.920;2023-01-10T09:04:15;7.70;;;4.25;;
19919;SDS011;10122;50.074;19.920;2023-01-10T09:06:41;6.32;;;3.60;;
19919;SDS011;10122;50.074;19.920;2023-01-10T09:09:06;6.53;;;3.60;;
19919;SDS011;10122;50.074;19.920;2023-01-10T09:11:33;6.95;;;3.70;;
19919;SDS011;10122;50.074;19.920;2023-01-10T09:13:59;6.93;;;3.42;;
19919;SDS011;10122;50.074;19.920;2023-01-10T09:16:25;7.80;;;3.92;;
19919;SDS011;10122;50.074;19.920;2023-01-10T09:18:51;7.28;;;3.80;;
19919;SDS011;10122;50.074;19.920;2023-01-10T09:21:16;6.90;;;3.95;;
19919;SDS011;10122;50.074;19.920;2023-01-10T09:23:42;7.18;;;3.78;;
19919;SDS011;10122;50.074;19.920;2023-01-10T09:26:08;6.97;;;4.03;;
19919;SDS011;10122;50.074;19.920;2023-01-10T09:28:34;7.20;;;4.20;;
19919;SDS011;10122;50.074;19.920;2023-01-10T09:31:00;8.60;;;4.22;;
19919;SDS011;10122;50.074;19.920;2023-01-10T09:33:28;8.88;;;4.03;;
19919;SDS011;10122;50.074;19.920;2023-01-10T09:35:56;9.38;;;4.10;;
19919;SDS011;10122;50.074;19.920;2023-01-10T09:38:22;7.65;;;4.05;;
19919;SDS011;10122;50.074;19.920;2023-01-10T09:47:04;8.25;;;4.15;;
19919;SDS011;10122;50.074;19.920;2023-01-10T09:52:32;7.20;;;4.20;;
19919;SDS011;10122;50.074;19.920;2023-01-10T09:55:44;10.00;;;4.22;;
19919;SDS011;10122;50.074;19.920;2023-01-10T09:57:54;7.75;;;4.07;;
19919;SDS011;10122;50.074;19.920;2023-01-10T10:00:26;8.98;;;4.50;;
19919;SDS011;10122;50.074;19.920;2023-01-10T10:03:01;8.55;;;4.35;;
19919;SDS011;10122;50.074;19.920;2023-01-10T10:05:36;9.48;;;4.50;;
19919;SDS011;10122;50.074;19.920;2023-01-10T10:08:02;8.05;;;4.18;;
19919;SDS011;10122;50.074;19.920;2023-01-10T10:19:22;9.00;;;4.30;;
19919;SDS011;10122;50.074;19.920;2023-01-10T10:27:30;11.65;;;4.97;;
19919;SDS011;10122;50.074;19.920;2023-01-10T10:30:09;8.85;;;4.70;;
19919;SDS011;10122;50.074;19.920;2023-01-10T10:36:11;11.65;;;4.88;;
19919;SDS011;10122;50.074;19.920;2023-01-10T10:38:45;8.98;;;4.93;;
19919;SDS011;10122;50.074;19.920;2023-01-10T10:41:14;7.85;;;4.60;;
19919;SDS011;10122;50.074;19.920;2023-01-10T10:43:49;8.55;;;4.70;;
19919;SDS011;10122;50.074;19.920;2023-01-10T10:46:16;9.07;;;4.38;;
19919;SDS011;10122;50.074;19.920;2023-01-10T10:54:03;7.07;;;3.70;;
19919;SDS011;10122;50.074;19.920;2023-01-10T10:56:30;6.38;;;3.63;;
19919;SDS011;10122;50.074;19.920;2023-01-10T10:58:57;6.95;;;3.53;;
19919;SDS011;10122;50.074;19.920;2023-01-10T11:01:23;7.63;;;4.10;;
19919;SDS011;10122;50.074;19.920;2023-01-10T11:03:51;6.65;;;3.47;;
19919;SDS011;10122;50.074;19.920;2023-01-10T11:06:17;4.40;;;2.80;;
19919;SDS011;10122;50.074;19.920;2023-01-10T11:08:45;5.53;;;2.55;;
19919;SDS011;10122;50.074;19.920;2023-01-10T11:11:21;5.68;;;2.53;;
19919;SDS011;10122;50.074;19.920;2023-01-10T11:13:57;5.30;;;2.53;;
19919;SDS011;10122;50.074;19.920;2023-01-10T11:16:25;5.55;;;2.40;;
19919;SDS011;10122;50.074;19.920;2023-01-10T11:21:54;3.63;;;2.20;;
19919;SDS011;10122;50.074;19.920;2023-01-10T11:24:24;4.05;;;1.92;;
19919;SDS011;10122;50.074;19.920;2023-01-10T11:26:57;5.10;;;2.15;;
19919;SDS011;10122;50.074;19.920;2023-01-10T11:31:57;5.25;;;2.10;;
19919;SDS011;10122;50.074;19.920;2023-01-10T11:34:32;3.53;;;2.15;;
19919;SDS011;10122;50.074;19.920;2023-01-10T11:37:42;4.53;;;2.13;;
19919;SDS011;10122;50.074;19.920;2023-01-10T11:42:43;6.00;;;2.10;;
19919;SDS011;10122;50.074;19.920;2023-01-10T11:47:54;4.65;;;1.88;;
19919;SDS011;10122;50.074;19.920;2023-01-10T11:50:24;3.33;;;1.92;;
19919;SDS011;10122;50.074;19.920;2023-01-10T11:53:02;3.35;;;1.90;;
19919;SDS011;10122;50.074;19.920;2023-01-10T11:55:31;4.22;;;2.10;;
19919;SDS011;10122;50.074;19.920;2023-01-10T11:58:03;3.10;;;2.00;;
19919;SDS011;10122;50.074;19.920;2023-01-10T12:00:34;4.88;;;2.70;;
19919;SDS011;10122;50.074;19.920;2023-01-10T12:03:24;2.95;;;1.98;;
19919;SDS011;10122;50.074;19.920;2023-01-10T12:06:06;3.63;;;2.22;;
19919;SDS011;10122;50.074;19.920;2023-01-10T12:08:38;6.45;;;2.30;;
19919;SDS011;10122;50.074;19.920;2023-01-10T12:13:59;4.03;;;2.30;;
19919;SDS011;10122;50.074;19.920;2023-01-10T12:16:32;3.30;;;2.10;;
19919;SDS011;10122;50.074;19.920;2023-01-10T12:18:59;3.83;;;2.20;;
19919;SDS011;10122;50.074;19.920;2023-01-10T12:24:00;3.67;;;2.10;;
19919;SDS011;10122;50.074;19.920;2023-01-10T12:26:30;3.90;;;2.10;;
19919;SDS011;10122;50.074;19.920;2023-01-10T12:28:58;3.92;;;2.33;;
19919;SDS011;10122;50.074;19.920;2023-01-10T12:31:32;4.45;;;2.28;;
19919;SDS011;10122;50.074;19.920;2023-01-10T12:34:43;5.13;;;2.60;;
19919;SDS011;10122;50.074;19.920;2023-01-10T12:39:32;6.70;;;2.60;;
19919;SDS011;10122;50.074;19.920;2023-01-10T12:45:12;6.32;;;2.70;;
19919;SDS011;10122;50.074;19.920;2023-01-10T12:50:42;5.28;;;3.10;;
19919;SDS011;10122;50.074;19.920;2023-01-10T12:53:22;5.03;;;2.90;;
19919;SDS011;10122;50.074;19.920;2023-01-10T12:55:54;6.20;;;3.20;;
19919;SDS011;10122;50.074;19.920;2023-01-10T13:00:59;5.32;;;3.28;;
19919;SDS011;10122;50.074;19.920;2023-01-10T13:03:28;6.47;;;3.60;;
19919;SDS011;10122;50.074;19.920;2023-01-10T13:05:56;5.97;;;3.45;;
19919;SDS011;10122;50.074;19.920;2023-01-10T13:08:24;6.60;;;3.58;;
19919;SDS011;10122;50.074;19.920;2023-01-10T13:10:53;6.93;;;3.60;;
19919;SDS011;10122;50.074;19.920;2023-01-10T13:13:31;7.47;;;3.85;;
19919;SDS011;10122;50.074;19.920;2023-01-10T13:16:03;5.93;;;3.50;;
19919;SDS011;10122;50.074;19.920;2023-01-10T13:18:33;7.90;;;3.80;;
19919;SDS011;10122;50.074;19.920;2023-01-10T13:23:45;6.60;;;4.18;;
19919;SDS011;10122;50.074;19.920;2023-01-10T13:26:17;7.22;;;4.15;;
19919;SDS011;10122;50.074;19.920;2023-01-10T13:28:54;7.82;;;4.38;;
19919;SDS011;10122;50.074;19.920;2023-01-10T13:31:28;9.82;;;5.10;;
19919;SDS011;10122;50.074;19.920;2023-01-10T13:34:00;8.43;;;5.10;;
19919;SDS011;10122;50.074;19.920;2023-01-10T13:36:53;8.48;;;5.35;;
19919;SDS011;10122;50.074;19.920;2023-01-10T13:39:23;10.10;;;5.72;;
19919;SDS011;10122;50.074;19.920;2023-01-10T14:00:50;13.55;;;7.03;;
19919;SDS011;10122;50.074;19.920;2023-01-10T14:08:54;12.55;;;6.93;;
19919;SDS011;10122;50.074;19.920;2023-01-10T14:11:22;15.45;;;7.90;;
19919;SDS011;10122;50.074;19.920;2023-01-10T14:13:58;12.55;;;7.05;;
19919;SDS011;10122;50.074;19.920;2023-01-10T14:16:36;14.30;;;7.78;;
19919;SDS011;10122;50.074;19.920;2023-01-10T14:19:05;12.60;;;7.53;;
19919;SDS011;10122;50.074;19.920;2023-01-10T14:21:45;13.23;;;7.30;;
19919;SDS011;10122;50.074;19.920;2023-01-10T14:24:27;14.90;;;8.40;;
19919;SDS011;10122;50.074;19.920;2023-01-10T14:27:02;15.77;;;8.43;;
19919;SDS011;10122;50.074;19.920;2023-01-10T14:29:29;13.38;;;7.93;;
19919;SDS011;10122;50.074;19.920;2023-01-10T14:31:57;14.88;;;7.30;;
19919;SDS011;10122;50.074;19.920;2023-01-10T14:34:26;13.95;;;7.32;;
19919;SDS011;10122;50.074;19.920;2023-01-10T14:37:05;15.52;;;8.13;;
19919;SDS011;10122;50.074;19.920;2023-01-10T14:39:33;14.75;;;8.27;;
19919;SDS011;10122;50.074;19.920;2023-01-10T14:42:04;14.68;;;8.18;;
19919;SDS011;10122;50.074;19.920;2023-01-10T14:44:49;20.02;;;8.48;;
19919;SDS011;10122;50.074;19.920;2023-01-10T14:47:30;15.93;;;8.32;;
19919;SDS011;10122;50.074;19.920;2023-01-10T14:49:57;14.23;;;7.97;;
19919;SDS011;10122;50.074;19.920;2023-01-10T14:52:33;13.55;;;7.28;;
19919;SDS011;10122;50.074;19.920;2023-01-10T14:57:37;13.48;;;7.47;;
19919;SDS011;10122;50.074;19.920;2023-01-10T15:00:05;14.27;;;7.55;;
19919;SDS011;10122;50.074;19.920;2023-01-10T15:02:31;13.05;;;7.47;;
19919;SDS011;10122;50.074;19.920;2023-01-10T15:07:47;14.55;;;8.02;;
19919;SDS011;10122;50.074;19.920;2023-01-10T15:12:42;15.07;;;8.38;;
19919;SDS011;10122;50.074;19.920;2023-01-10T15:15:18;14.50;;;8.20;;
19919;SDS011;10122;50.074;19.920;2023-01-10T15:17:51;16.08;;;8.95;;
19919;SDS011;10122;50.074;19.920;2023-01-10T15:20:17;15.20;;;8.40;;
19919;SDS011;10122;50.074;19.920;2023-01-10T15:22:58;17.88;;;10.13;;
19919;SDS011;10122;50.074;19.920;2023-01-10T15:25:30;19.27;;;9.10;;
19919;SDS011;10122;50.074;19.920;2023-01-10T15:28:02;16.90;;;8.85;;
19919;SDS011;10122;50.074;19.920;2023-01-10T15:30:29;17.95;;;9.25;;
19919;SDS011;10122;50.074;19.920;2023-01-10T15:33:01;15.95;;;9.13;;
19919;SDS011;10122;50.074;19.920;2023-01-10T15:35:29;16.00;;;8.88;;
19919;SDS011;10122;50.074;19.920;2023-01-10T15:38:29;16.25;;;9.02;;
19919;SDS011;10122;50.074;19.920;2023-01-10T15:40:57;16.75;;;9.43;;
19919;SDS011;10122;50.074;19.920;2023-01-10T15:43:27;18.08;;;9.90;;
19919;SDS011;10122;50.074;19.920;2023-01-10T15:45:58;19.55;;;9.75;;
19919;SDS011;10122;50.074;19.920;2023-01-10T15:53:56;16.33;;;9.07;;
19919;SDS011;10122;50.074;19.920;2023-01-10T16:02:40;17.55;;;9.00;;
19919;SDS011;10122;50.074;19.920;2023-01-10T16:04:54;19.92;;;10.02;;
19919;SDS011;10122;50.074;19.920;2023-01-10T16:07:27;18.67;;;9.73;;
19919;SDS011;10122;50.074;19.920;2023-01-10T16:10:07;16.27;;;9.18;;
19919;SDS011;10122;50.074;19.920;2023-01-10T16:12:44;19.20;;;10.02;;
19919;SDS011;10122;50.074;19.920;2023-01-10T16:15:32;19.55;;;10.32;;
19919;SDS011;10122;50.074;19.920;2023-01-10T16:17:59;19.90;;;10.65;;
19919;SDS011;10122;50.074;19.920;2023-01-10T16:20:38;18.45;;;9.98;;
19919;SDS011;10122;50.074;19.920;2023-01-10T16:23:09;19.88;;;10.10;;
19919;SDS011;10122;50.074;19.920;2023-01-10T16:25:40;19.13;;;9.93;;
19919;SDS011;10122;50.074;19.920;2023-01-10T16:28:11;20.73;;;10.55;;
19919;SDS011;10122;50.074;19.920;2023-01-10T16:30:38;20.40;;;10.40;;
19919;SDS011;10122;50.074;19.920;2023-01-10T16:35:41;20.45;;;10.25;;
19919;SDS011;10122;50.074;19.920;2023-01-10T16:38:10;19.95;;;10.38;;
19919;SDS011;10122;50.074;19.920;2023-01-10T16:40:41;21.67;;;10.27;;
19919;SDS011;10122;50.074;19.920;2023-01-10T16:43:10;20.45;;;10.55;;
19919;SDS011;10122;50.074;19.920;2023-01-10T16:45:42;20.98;;;10.73;;
19919;SDS011;10122;50.074;19.920;2023-01-10T16:48:09;19.88;;;10.15;;
19919;SDS011;10122;50.074;19.920;2023-01-10T16:50:34;21.15;;;10.52;;
19919;SDS011;10122;50.074;19.920;2023-01-10T16:53:00;20.30;;;10.40;;
19919;SDS011;10122;50.074;19.920;2023-01-10T16:55:49;18.98;;;10.30;;
19919;SDS011;10122;50.074;19.920;2023-01-10T16:58:15;20.52;;;10.60;;
19919;SDS011;10122;50.074;19.920;2023-01-10T17:00:42;20.30;;;10.50;;
19919;SDS011;10122;50.074;19.920;2023-01-10T17:03:12;19.15;;;9.80;;
19919;SDS011;10122;50.074;19.920;2023-01-10T17:05:45;17.33;;;9.63;;
19919;SDS011;10122;50.074;19.920;2023-01-10T17:08:19;17.73;;;10.00;;